createdAt,value
2022-09-17T00:00:04.258Z,98.77
2022-09-17T00:01:04.264Z,98.77
2022-09-17T00:02:04.308Z,98.77
2022-09-17T00:03:04.295Z,98.77
2022-09-17T00:04:04.650Z,98.77
2022-09-17T00:05:05.189Z,98.88
2022-09-17T00:06:04.194Z,98.88
2022-09-17T00:07:04.197Z,98.98
2022-09-17T00:08:04.170Z,98.98
2022-09-17T00:09:04.172Z,98.88
2022-09-17T00:10:04.141Z,98.98
2022-09-17T00:11:04.140Z,98.98
2022-09-17T00:12:04.148Z,98.98
2022-09-17T00:13:05.105Z,98.98
2022-09-17T00:14:04.106Z,98.98
2022-09-17T00:15:04.092Z,98.88
2022-09-17T00:16:04.144Z,98.88
2022-09-17T00:17:04.091Z,98.88
2022-09-17T00:18:04.078Z,98.77
2022-09-17T00:19:04.418Z,98.77
2022-09-17T00:20:04.034Z,98.77
2022-09-17T00:21:04.029Z,98.77
2022-09-17T00:22:04.014Z,98.88
2022-09-17T00:23:04.009Z,98.88
2022-09-17T00:24:03.991Z,98.88
2022-09-17T00:25:03.977Z,98.88
2022-09-17T00:26:03.969Z,98.98
2022-09-17T00:27:04.016Z,98.93
2022-09-17T00:28:03.975Z,98.73
2022-09-17T00:29:03.970Z,98.63
2022-09-17T00:30:03.944Z,98.68
2022-09-17T00:31:03.950Z,98.68
2022-09-17T00:32:03.905Z,98.68
2022-09-17T00:33:04.017Z,98.57
2022-09-17T00:34:03.888Z,98.52
2022-09-17T00:35:03.886Z,98.57
2022-09-17T00:36:03.868Z,98.68
2022-09-17T00:37:03.855Z,98.63
2022-09-17T00:38:03.856Z,98.77
2022-09-17T00:39:03.845Z,98.63
2022-09-17T00:40:03.919Z,98.73
2022-09-17T00:41:04.592Z,98.52
2022-09-17T00:42:03.805Z,98.52
2022-09-17T00:43:03.815Z,98.52
2022-09-17T00:44:03.774Z,98.52
2022-09-17T00:45:03.775Z,98.52
2022-09-17T00:46:03.770Z,98.52
2022-09-17T00:47:03.740Z,98.52
2022-09-17T00:48:03.774Z,98.63
2022-09-17T00:49:03.721Z,98.63
2022-09-17T00:50:03.712Z,98.63
2022-09-17T00:51:03.698Z,98.63
2022-09-17T00:52:03.712Z,98.63
2022-09-17T00:53:03.734Z,98.63
2022-09-17T00:54:03.681Z,98.63
2022-09-17T00:55:03.657Z,98.63
2022-09-17T00:56:03.767Z,98.68
2022-09-17T00:57:03.648Z,98.63
2022-09-17T00:58:03.669Z,98.63
2022-09-17T00:59:03.617Z,98.52
2022-09-17T01:00:03.591Z,98.52
2022-09-17T01:01:03.646Z,98.63
2022-09-17T01:02:03.641Z,98.63
2022-09-17T01:03:03.563Z,98.57
2022-09-17T01:04:03.569Z,98.63
2022-09-17T01:05:03.538Z,98.63
2022-09-17T01:06:03.524Z,98.73
2022-09-17T01:07:03.521Z,98.73
2022-09-17T01:08:03.510Z,98.83
2022-09-17T01:09:03.516Z,98.83
2022-09-17T01:10:03.488Z,98.83
2022-09-17T01:11:03.553Z,98.83
2022-09-17T01:12:03.471Z,98.83
2022-09-17T01:13:03.469Z,98.83
2022-09-17T01:14:03.470Z,98.83
2022-09-17T01:15:03.439Z,98.83
2022-09-17T01:16:03.452Z,98.83
2022-09-17T01:17:03.410Z,98.83
2022-09-17T01:18:03.621Z,98.83
2022-09-17T01:19:03.398Z,98.83
2022-09-17T01:20:03.382Z,98.73
2022-09-17T01:21:03.364Z,98.73
2022-09-17T01:22:03.355Z,98.73
2022-09-17T01:23:03.347Z,98.63
2022-09-17T01:24:03.340Z,98.63
2022-09-17T01:25:03.343Z,98.52
2022-09-17T01:26:03.411Z,98.52
2022-09-17T01:27:03.327Z,98.52
2022-09-17T01:28:03.306Z,98.52
2022-09-17T01:29:03.285Z,98.52
2022-09-17T01:30:03.290Z,98.52
2022-09-17T01:31:03.314Z,98.52
2022-09-17T01:32:03.251Z,98.52
2022-09-17T01:33:03.290Z,98.52
2022-09-17T01:34:03.243Z,98.52
2022-09-17T01:35:03.205Z,98.52
2022-09-17T01:36:03.217Z,98.63
2022-09-17T01:37:03.212Z,98.63
2022-09-17T01:38:03.195Z,98.63
2022-09-17T01:39:03.172Z,98.63
2022-09-17T01:40:03.221Z,98.63
2022-09-17T01:41:03.191Z,98.73
2022-09-17T01:42:03.661Z,98.73
2022-09-17T01:43:03.133Z,98.73
2022-09-17T01:44:03.115Z,98.73
2022-09-17T01:45:03.102Z,98.83
2022-09-17T01:46:03.083Z,98.83
2022-09-17T01:47:03.086Z,98.93
2022-09-17T01:48:03.647Z,99.04
2022-09-17T01:49:03.067Z,99.14
2022-09-17T01:50:03.097Z,99.14
2022-09-17T01:51:03.036Z,99.14
2022-09-17T01:52:03.024Z,99.24
2022-09-17T01:53:03.028Z,99.24
2022-09-17T01:54:03.006Z,99.24
2022-09-17T01:55:03.011Z,99.34
2022-09-17T01:56:03.150Z,99.44
2022-09-17T01:57:02.971Z,99.44
2022-09-17T01:58:02.990Z,99.44
2022-09-17T01:59:02.940Z,99.54
2022-09-17T02:00:02.939Z,99.54
2022-09-17T02:01:03.020Z,99.65
2022-09-17T02:02:03.134Z,99.65
2022-09-17T02:03:02.907Z,99.65
2022-09-17T02:04:02.910Z,99.75
2022-09-17T02:05:02.881Z,99.75
2022-09-17T02:06:02.868Z,99.85
2022-09-17T02:07:02.857Z,99.85
2022-09-17T02:08:02.836Z,99.85
2022-09-17T02:09:02.849Z,99.85
2022-09-17T02:10:02.824Z,99.85
2022-09-17T02:11:02.832Z,99.85
2022-09-17T02:12:02.806Z,99.85
2022-09-17T02:13:02.796Z,99.85
2022-09-17T02:14:02.792Z,99.85
2022-09-17T02:15:02.766Z,99.85
2022-09-17T02:16:02.827Z,99.85
2022-09-17T02:17:02.774Z,99.85
2022-09-17T02:18:02.733Z,99.85
2022-09-17T02:19:02.745Z,99.95
2022-09-17T02:20:02.706Z,99.95
2022-09-17T02:21:02.696Z,99.99
2022-09-17T02:22:02.688Z,99.99
2022-09-17T02:23:02.686Z,99.99
2022-09-17T02:24:02.707Z,99.99
2022-09-17T02:25:02.658Z,99.99
2022-09-17T02:26:02.644Z,99.99
2022-09-17T02:27:02.638Z,99.99
2022-09-17T02:28:03.555Z,99.99
2022-09-17T02:29:02.624Z,99.99
2022-09-17T02:30:02.607Z,99.99
2022-09-17T02:31:02.717Z,99.99
2022-09-17T02:32:02.696Z,99.99
2022-09-17T02:33:02.571Z,99.99
2022-09-17T02:34:02.579Z,99.99
2022-09-17T02:35:02.572Z,99.99
2022-09-17T02:36:02.532Z,99.99
2022-09-17T02:37:02.517Z,99.99
2022-09-17T02:38:02.505Z,99.99
2022-09-17T02:39:02.508Z,99.99
2022-09-17T02:40:02.706Z,99.99
2022-09-17T02:41:02.482Z,99.99
2022-09-17T02:42:02.471Z,99.99
2022-09-17T02:43:02.463Z,99.99
2022-09-17T02:44:02.445Z,99.99
2022-09-17T02:45:02.455Z,99.99
2022-09-17T02:46:02.413Z,99.99
2022-09-17T02:47:03.238Z,99.99
2022-09-17T02:48:02.395Z,99.99
2022-09-17T02:49:02.386Z,99.99
2022-09-17T02:50:02.385Z,99.99
2022-09-17T02:51:02.388Z,99.99
2022-09-17T02:52:02.357Z,99.99
2022-09-17T02:53:02.348Z,99.99
2022-09-17T02:54:02.329Z,99.99
2022-09-17T02:55:02.380Z,99.99
2022-09-17T02:56:02.332Z,99.99
2022-09-17T02:57:02.309Z,99.99
2022-09-17T02:58:02.291Z,99.99
2022-09-17T02:59:02.280Z,99.99
2022-09-17T03:00:02.267Z,99.99
2022-09-17T03:01:02.361Z,99.99
2022-09-17T03:02:02.339Z,99.99
2022-09-17T03:03:02.240Z,99.99
2022-09-17T03:04:02.218Z,99.99
2022-09-17T03:05:02.215Z,99.99
2022-09-17T03:06:02.200Z,99.99
2022-09-17T03:07:02.197Z,99.99
2022-09-17T03:08:02.171Z,99.99
2022-09-17T03:09:02.163Z,99.99
2022-09-17T03:10:02.145Z,99.99
2022-09-17T03:11:02.159Z,99.99
2022-09-17T03:12:02.139Z,99.99
2022-09-17T03:13:02.135Z,99.99
2022-09-17T03:14:02.118Z,99.99
2022-09-17T03:15:02.118Z,99.99
2022-09-17T03:16:02.134Z,99.99
2022-09-17T03:17:02.084Z,99.99
2022-09-17T03:18:02.056Z,99.99
2022-09-17T03:19:02.065Z,99.99
2022-09-17T03:20:02.032Z,99.99
2022-09-17T03:21:02.032Z,99.99
2022-09-17T03:22:02.038Z,99.99
2022-09-17T03:23:02.049Z,99.99
2022-09-17T03:24:01.997Z,99.99
2022-09-17T03:25:01.984Z,99.91
2022-09-17T03:26:02.518Z,99.91
2022-09-17T03:27:01.971Z,99.91
2022-09-17T03:28:01.946Z,99.91
2022-09-17T03:29:01.937Z,99.91
2022-09-17T03:30:01.928Z,99.91
2022-09-17T03:31:02.004Z,99.80
2022-09-17T03:32:01.927Z,99.70
2022-09-17T03:33:01.911Z,99.60
2022-09-17T03:34:01.895Z,99.60
2022-09-17T03:35:01.866Z,99.60
2022-09-17T03:36:01.857Z,99.50
2022-09-17T03:37:01.840Z,99.50
2022-09-17T03:38:01.862Z,99.50
2022-09-17T03:39:01.824Z,99.40
2022-09-17T03:40:01.924Z,99.40
2022-09-17T03:41:02.518Z,99.29
2022-09-17T03:42:01.817Z,99.29
2022-09-17T03:43:01.810Z,99.29
2022-09-17T03:44:01.777Z,99.29
2022-09-17T03:45:01.753Z,99.29
2022-09-17T03:46:01.855Z,99.29
2022-09-17T03:47:01.749Z,99.29
2022-09-17T03:48:01.896Z,99.29
2022-09-17T03:49:01.803Z,99.19
2022-09-17T03:50:01.705Z,99.09
2022-09-17T03:51:01.685Z,99.09
2022-09-17T03:52:01.689Z,98.99
2022-09-17T03:53:01.674Z,98.89
2022-09-17T03:54:01.667Z,98.89
2022-09-17T03:55:01.649Z,98.99
2022-09-17T03:56:01.639Z,98.99
2022-09-17T03:57:01.617Z,98.94
2022-09-17T03:58:02.150Z,98.99
2022-09-17T03:59:01.603Z,98.94
2022-09-17T04:00:01.595Z,98.94
2022-09-17T04:01:01.586Z,98.89
2022-09-17T04:02:01.703Z,98.84
2022-09-17T04:03:01.605Z,98.74
2022-09-17T04:04:01.662Z,98.74
2022-09-17T04:05:02.237Z,98.74
2022-09-17T04:06:01.520Z,98.74
2022-09-17T04:07:01.513Z,98.74
2022-09-17T04:08:01.514Z,98.64
2022-09-17T04:09:01.491Z,98.54
2022-09-17T04:10:01.489Z,98.48
2022-09-17T04:11:01.461Z,98.48
2022-09-17T04:12:01.450Z,98.48
2022-09-17T04:13:01.448Z,98.38
2022-09-17T04:14:01.508Z,98.38
2022-09-17T04:15:01.423Z,98.38
2022-09-17T04:16:01.484Z,98.38
2022-09-17T04:17:01.400Z,98.48
2022-09-17T04:18:01.403Z,98.43
2022-09-17T04:19:01.391Z,98.58
2022-09-17T04:20:01.359Z,98.54
2022-09-17T04:21:01.367Z,98.54
2022-09-17T04:22:01.345Z,98.54
2022-09-17T04:23:01.348Z,98.54
2022-09-17T04:24:01.319Z,98.33
2022-09-17T04:25:01.365Z,98.23
2022-09-17T04:26:01.298Z,98.18
2022-09-17T04:27:01.287Z,98.18
2022-09-17T04:28:01.287Z,98.18
2022-09-17T04:29:01.270Z,98.27
2022-09-17T04:30:01.258Z,98.27
2022-09-17T04:31:01.330Z,98.27
2022-09-17T04:32:01.233Z,98.23
2022-09-17T04:33:01.303Z,98.27
2022-09-17T04:34:01.208Z,98.18
2022-09-17T04:35:01.191Z,98.18
2022-09-17T04:36:01.192Z,98.18
2022-09-17T04:37:01.173Z,98.18
2022-09-17T04:38:01.185Z,98.18
2022-09-17T04:39:01.156Z,98.18
2022-09-17T04:40:04.571Z,98.07
2022-09-17T04:41:01.131Z,98.07
2022-09-17T04:42:01.120Z,98.07
2022-09-17T04:43:01.103Z,97.97
2022-09-17T04:44:01.118Z,97.97
2022-09-17T04:45:01.092Z,97.87
2022-09-17T04:46:01.078Z,97.87
2022-09-17T04:47:01.058Z,97.87
2022-09-17T04:48:01.044Z,97.87
2022-09-17T04:49:01.041Z,97.87
2022-09-17T04:50:01.653Z,97.87
2022-09-17T04:51:01.011Z,97.87
2022-09-17T04:52:01.012Z,97.87
2022-09-17T04:53:00.999Z,97.87
2022-09-17T04:54:01.006Z,97.82
2022-09-17T04:55:00.970Z,97.97
2022-09-17T04:56:00.965Z,97.92
2022-09-17T04:57:01.061Z,97.82
2022-09-17T04:58:00.943Z,97.82
2022-09-17T04:59:00.947Z,97.92
2022-09-17T05:00:00.913Z,97.92
2022-09-17T05:01:01.021Z,97.92
2022-09-17T05:02:00.924Z,97.92
2022-09-17T05:03:00.885Z,97.92
2022-09-17T05:04:00.893Z,97.92
2022-09-17T05:05:00.863Z,98.02
2022-09-17T05:06:00.858Z,98.02
2022-09-17T05:07:00.845Z,98.02
2022-09-17T05:08:00.844Z,98.13
2022-09-17T05:09:00.825Z,98.02
2022-09-17T05:10:00.806Z,98.02
2022-09-17T05:11:00.797Z,98.02
2022-09-17T05:12:00.799Z,98.02
2022-09-17T05:13:00.773Z,98.02
2022-09-17T05:14:00.793Z,98.13
2022-09-17T05:15:00.758Z,98.13
2022-09-17T05:16:01.753Z,98.13
2022-09-17T05:17:00.721Z,98.13
2022-09-17T05:18:00.757Z,98.13
2022-09-17T05:19:00.708Z,98.13
2022-09-17T05:20:00.732Z,98.13
2022-09-17T05:21:00.692Z,98.23
2022-09-17T05:22:00.687Z,98.13
2022-09-17T05:23:00.753Z,98.13
2022-09-17T05:24:00.671Z,98.23
2022-09-17T05:25:00.643Z,98.23
2022-09-17T05:26:00.636Z,98.23
2022-09-17T05:27:00.617Z,98.23
2022-09-17T05:28:00.613Z,98.23
2022-09-17T05:29:00.768Z,98.13
2022-09-17T05:30:00.611Z,98.23
2022-09-17T05:31:00.670Z,98.23
2022-09-17T05:32:00.573Z,98.23
2022-09-17T05:33:00.547Z,98.33
2022-09-17T05:34:00.569Z,98.33
2022-09-17T05:35:04.803Z,98.33
2022-09-17T05:36:00.534Z,98.33
2022-09-17T05:37:00.509Z,98.33
2022-09-17T05:38:00.505Z,98.33
2022-09-17T05:39:00.486Z,98.28
2022-09-17T05:40:00.642Z,98.18
2022-09-17T05:41:00.477Z,98.18
2022-09-17T05:42:00.453Z,98.08
2022-09-17T05:43:00.447Z,98.08
2022-09-17T05:44:00.492Z,97.98
2022-09-17T05:45:00.435Z,97.98
2022-09-17T05:46:00.426Z,97.88
2022-09-17T05:47:00.518Z,97.78
2022-09-17T05:48:00.463Z,97.78
2022-09-17T05:49:00.381Z,97.78
2022-09-17T05:50:00.377Z,97.78
2022-09-17T05:51:00.359Z,97.88
2022-09-17T05:52:00.346Z,97.88
2022-09-17T05:53:00.340Z,97.88
2022-09-17T05:54:00.333Z,97.98
2022-09-17T05:55:00.335Z,97.98
2022-09-17T05:56:00.296Z,97.98
2022-09-17T05:57:00.288Z,98.08
2022-09-17T05:58:00.273Z,98.18
2022-09-17T05:59:00.335Z,98.18
2022-09-17T06:00:00.283Z,98.18
2022-09-17T06:01:00.242Z,98.18
2022-09-17T06:02:00.387Z,98.18
2022-09-17T06:03:00.277Z,98.18
2022-09-17T06:04:00.294Z,98.08
2022-09-17T06:05:00.249Z,98.08
2022-09-17T06:06:00.255Z,97.98
2022-09-17T06:07:00.245Z,97.98
2022-09-17T06:08:00.241Z,98.08
2022-09-17T06:09:00.179Z,98.08
2022-09-17T06:10:00.240Z,97.98
2022-09-17T06:11:02.508Z,97.88
2022-09-17T06:12:00.288Z,97.78
2022-09-17T06:13:00.152Z,97.78
2022-09-17T06:14:00.210Z,97.67
2022-09-17T06:15:00.168Z,97.67
2022-09-17T06:16:00.285Z,97.78
2022-09-17T06:17:00.089Z,97.67
2022-09-17T06:18:00.122Z,97.78
2022-09-17T06:19:00.178Z,97.78
2022-09-17T06:20:00.053Z,97.67
2022-09-17T06:21:00.041Z,97.67
2022-09-17T06:22:00.054Z,97.67
2022-09-17T06:23:00.049Z,97.67
2022-09-17T06:24:00.009Z,97.67
2022-09-17T06:25:00.029Z,97.67
2022-09-17T06:26:00.034Z,97.67
2022-09-17T06:26:59.999Z,97.67
2022-09-17T06:28:00.018Z,97.67
2022-09-17T06:29:00.049Z,97.67
2022-09-17T06:29:59.950Z,97.57
2022-09-17T06:31:00.007Z,97.42
2022-09-17T06:31:59.933Z,97.42
2022-09-17T06:32:59.942Z,97.32
2022-09-17T06:34:01.655Z,96.92
2022-09-17T06:34:59.979Z,96.71
2022-09-17T06:35:59.881Z,96.71
2022-09-17T06:36:59.847Z,96.61
2022-09-17T06:37:59.901Z,96.61
2022-09-17T06:38:59.876Z,96.61
2022-09-17T06:39:59.993Z,96.71
2022-09-17T06:40:59.894Z,96.71
2022-09-17T06:41:59.807Z,96.61
2022-09-17T06:42:59.806Z,96.41
2022-09-17T06:43:59.840Z,96.20
2022-09-17T06:45:02.954Z,96.30
2022-09-17T06:45:59.786Z,96.30
2022-09-17T06:46:59.796Z,95.90
2022-09-17T06:47:59.760Z,95.90
2022-09-17T06:48:59.749Z,95.69
2022-09-17T06:49:59.743Z,95.39
2022-09-17T06:50:59.767Z,95.39
2022-09-17T06:51:59.698Z,95.08
2022-09-17T06:52:59.698Z,94.98
2022-09-17T06:53:59.803Z,94.78
2022-09-17T06:54:59.661Z,94.47
2022-09-17T06:56:05.154Z,94.27
2022-09-17T06:56:59.715Z,94.27
2022-09-17T06:57:59.683Z,94.37
2022-09-17T06:58:59.906Z,94.37
2022-09-17T06:59:59.665Z,94.27
2022-09-17T07:00:59.759Z,94.37
2022-09-17T07:01:59.641Z,94.57
2022-09-17T07:02:59.622Z,94.57
2022-09-17T07:03:59.575Z,94.17
2022-09-17T07:04:59.595Z,93.86
2022-09-17T07:05:59.572Z,93.76
2022-09-17T07:06:59.545Z,93.66
2022-09-17T07:07:59.548Z,93.45
2022-09-17T07:08:59.607Z,93.35
2022-09-17T07:09:59.565Z,93.35
2022-09-17T07:10:59.557Z,93.15
2022-09-17T07:11:59.507Z,92.84
2022-09-17T07:12:59.467Z,92.84
2022-09-17T07:13:59.606Z,92.64
2022-09-17T07:14:59.498Z,92.54
2022-09-17T07:15:59.577Z,92.40
2022-09-17T07:16:59.425Z,92.19
2022-09-17T07:17:59.480Z,91.99
2022-09-17T07:18:59.442Z,91.38
2022-09-17T07:19:59.434Z,91.27
2022-09-17T07:20:59.428Z,91.27
2022-09-17T07:21:59.409Z,91.27
2022-09-17T07:22:59.363Z,91.27
2022-09-17T07:23:59.448Z,91.27
2022-09-17T07:24:59.339Z,91.38
2022-09-17T07:25:59.351Z,91.27
2022-09-17T07:26:59.374Z,91.07
2022-09-17T07:27:59.316Z,90.66
2022-09-17T07:28:59.393Z,90.31
2022-09-17T07:29:59.301Z,90.01
2022-09-17T07:30:59.350Z,90.11
2022-09-17T07:31:59.312Z,90.22
2022-09-17T07:32:59.256Z,90.31
2022-09-17T07:33:59.306Z,90.31
2022-09-17T07:34:59.267Z,89.91
2022-09-17T07:35:59.243Z,89.81
2022-09-17T07:36:59.280Z,89.50
2022-09-17T07:37:59.234Z,89.40
2022-09-17T07:38:59.204Z,89.30
2022-09-17T07:39:59.199Z,89.20
2022-09-17T07:40:59.232Z,89.20
2022-09-17T07:41:59.217Z,89.30
2022-09-17T07:42:59.187Z,89.09
2022-09-17T07:43:59.270Z,89.20
2022-09-17T07:45:01.968Z,89.20
2022-09-17T07:45:59.134Z,88.95
2022-09-17T07:46:59.195Z,88.65
2022-09-17T07:47:59.133Z,88.65
2022-09-17T07:48:59.073Z,88.75
2022-09-17T07:49:59.052Z,88.85
2022-09-17T07:50:59.037Z,88.44
2022-09-17T07:51:59.082Z,88.44
2022-09-17T07:52:59.048Z,88.13
2022-09-17T07:53:59.074Z,88.13
2022-09-17T07:54:59.033Z,88.13
2022-09-17T07:55:59.027Z,88.04
2022-09-17T07:56:59.074Z,88.13
2022-09-17T07:57:59.041Z,88.13
2022-09-17T07:58:59.060Z,87.73
2022-09-17T07:59:58.987Z,87.43
2022-09-17T08:00:58.951Z,87.53
2022-09-17T08:01:59.083Z,87.59
2022-09-17T08:02:59.023Z,87.29
2022-09-17T08:03:58.913Z,87.29
2022-09-17T08:04:58.918Z,87.18
2022-09-17T08:05:58.890Z,87.08
2022-09-17T08:06:58.937Z,86.88
2022-09-17T08:07:58.931Z,86.57
2022-09-17T08:08:58.850Z,86.37
2022-09-17T08:09:58.859Z,86.47
2022-09-17T08:10:58.830Z,86.37
2022-09-17T08:11:58.859Z,86.16
2022-09-17T08:12:58.895Z,86.16
2022-09-17T08:13:58.849Z,86.16
2022-09-17T08:14:58.830Z,86.27
2022-09-17T08:15:58.833Z,86.27
2022-09-17T08:16:58.774Z,86.27
2022-09-17T08:17:58.772Z,86.13
2022-09-17T08:18:58.796Z,85.92
2022-09-17T08:19:58.768Z,85.72
2022-09-17T08:20:58.769Z,85.72
2022-09-17T08:21:58.785Z,85.52
2022-09-17T08:22:58.729Z,85.52
2022-09-17T08:23:58.727Z,85.21
2022-09-17T08:24:58.682Z,85.01
2022-09-17T08:25:58.707Z,85.11
2022-09-17T08:26:58.702Z,84.91
2022-09-17T08:27:58.682Z,84.30
2022-09-17T08:28:58.751Z,84.09
2022-09-17T08:29:58.625Z,84.30
2022-09-17T08:30:58.764Z,84.09
2022-09-17T08:31:58.635Z,83.89
2022-09-17T08:32:58.641Z,83.59
2022-09-17T08:33:58.571Z,83.69
2022-09-17T08:34:58.569Z,83.28
2022-09-17T08:35:58.545Z,83.69
2022-09-17T08:36:58.551Z,83.28
2022-09-17T08:37:58.561Z,82.64
2022-09-17T08:38:58.529Z,81.82
2022-09-17T08:39:58.649Z,82.23
2022-09-17T08:40:58.549Z,82.23
2022-09-17T08:41:58.501Z,82.03
2022-09-17T08:42:58.539Z,81.82
2022-09-17T08:43:58.472Z,81.92
2022-09-17T08:45:00.684Z,81.41
2022-09-17T08:45:58.465Z,81.56
2022-09-17T08:46:58.588Z,81.35
2022-09-17T08:47:58.454Z,80.60
2022-09-17T08:48:58.415Z,80.91
2022-09-17T08:49:58.415Z,80.71
2022-09-17T08:51:03.294Z,80.80
2022-09-17T08:51:58.414Z,80.91
2022-09-17T08:52:58.420Z,80.66
2022-09-17T08:53:58.357Z,79.96
2022-09-17T08:54:58.377Z,79.85
2022-09-17T08:55:58.334Z,79.85
2022-09-17T08:56:58.339Z,80.16
2022-09-17T08:57:58.348Z,80.57
2022-09-17T08:58:58.366Z,81.38
2022-09-17T08:59:58.292Z,81.62
2022-09-17T09:00:58.261Z,81.11
2022-09-17T09:01:58.331Z,80.71
2022-09-17T09:02:58.302Z,80.30
2022-09-17T09:03:58.248Z,79.69
2022-09-17T09:04:58.230Z,78.98
2022-09-17T09:05:58.281Z,79.18
2022-09-17T09:06:58.216Z,78.67
2022-09-17T09:07:58.201Z,78.88
2022-09-17T09:08:58.214Z,78.67
2022-09-17T09:09:58.172Z,78.98
2022-09-17T09:10:58.172Z,79.28
2022-09-17T09:11:58.136Z,79.38
2022-09-17T09:12:58.131Z,79.49
2022-09-17T09:13:58.135Z,79.18
2022-09-17T09:14:58.154Z,78.47
2022-09-17T09:15:58.239Z,78.37
2022-09-17T09:16:58.114Z,77.86
2022-09-17T09:17:58.084Z,77.86
2022-09-17T09:18:58.079Z,77.97
2022-09-17T09:19:58.061Z,77.93
2022-09-17T09:20:58.072Z,77.42
2022-09-17T09:21:58.032Z,76.71
2022-09-17T09:22:58.020Z,76.61
2022-09-17T09:23:58.030Z,76.71
2022-09-17T09:24:58.021Z,76.47
2022-09-17T09:25:58.009Z,76.47
2022-09-17T09:26:58.857Z,76.67
2022-09-17T09:27:57.989Z,76.27
2022-09-17T09:28:58.011Z,75.76
2022-09-17T09:29:57.943Z,75.82
2022-09-17T09:30:58.034Z,75.73
2022-09-17T09:31:57.960Z,75.82
2022-09-17T09:32:57.920Z,75.93
2022-09-17T09:33:57.895Z,76.13
2022-09-17T09:34:57.887Z,76.23
2022-09-17T09:35:57.871Z,76.33
2022-09-17T09:36:57.870Z,76.64
2022-09-17T09:37:57.857Z,76.03
2022-09-17T09:38:57.851Z,76.13
2022-09-17T09:39:57.990Z,75.42
2022-09-17T09:40:57.831Z,75.32
2022-09-17T09:41:57.831Z,74.81
2022-09-17T09:42:57.812Z,75.01
2022-09-17T09:44:05.699Z,75.22
2022-09-17T09:45:01.573Z,75.62
2022-09-17T09:45:57.784Z,75.42
2022-09-17T09:46:57.934Z,74.81
2022-09-17T09:47:57.780Z,75.01
2022-09-17T09:48:57.743Z,75.46
2022-09-17T09:49:57.750Z,76.06
2022-09-17T09:51:13.100Z,76.47
2022-09-17T09:51:57.794Z,76.87
2022-09-17T09:52:57.693Z,77.18
2022-09-17T09:53:57.665Z,77.48
2022-09-17T09:54:57.671Z,77.69
2022-09-17T09:55:57.667Z,77.89
2022-09-17T09:56:57.641Z,78.30
2022-09-17T09:57:57.643Z,78.09
2022-09-17T09:58:57.643Z,77.89
2022-09-17T09:59:57.661Z,77.79
2022-09-17T10:00:57.604Z,77.69
2022-09-17T10:01:57.718Z,77.79
2022-09-17T10:02:57.675Z,77.83
2022-09-17T10:03:57.569Z,77.93
2022-09-17T10:04:57.580Z,78.30
2022-09-17T10:05:57.547Z,78.40
2022-09-17T10:06:57.549Z,78.60
2022-09-17T10:07:57.507Z,77.75
2022-09-17T10:08:57.514Z,77.75
2022-09-17T10:09:57.520Z,77.65
2022-09-17T10:10:57.484Z,76.94
2022-09-17T10:11:57.475Z,77.04
2022-09-17T10:12:57.486Z,77.14
2022-09-17T10:13:57.565Z,76.84
2022-09-17T10:14:57.438Z,76.54
2022-09-17T10:15:57.461Z,75.73
2022-09-17T10:16:57.420Z,74.81
2022-09-17T10:17:57.410Z,75.12
2022-09-17T10:18:57.419Z,75.38
2022-09-17T10:19:57.383Z,74.88
2022-09-17T10:20:57.370Z,73.86
2022-09-17T10:21:57.387Z,73.56
2022-09-17T10:22:57.570Z,73.56
2022-09-17T10:23:57.354Z,73.66
2022-09-17T10:24:57.342Z,73.73
2022-09-17T10:25:57.356Z,73.93
2022-09-17T10:26:57.318Z,73.63
2022-09-17T10:27:57.296Z,73.69
2022-09-17T10:28:57.389Z,73.29
2022-09-17T10:29:57.316Z,72.04
2022-09-17T10:30:57.345Z,71.84
2022-09-17T10:31:57.384Z,71.44
2022-09-17T10:32:57.256Z,71.33
2022-09-17T10:33:57.247Z,70.93
2022-09-17T10:34:57.276Z,71.03
2022-09-17T10:35:57.254Z,70.93
2022-09-17T10:36:57.199Z,71.33
2022-09-17T10:37:57.186Z,71.53
2022-09-17T10:38:57.177Z,71.23
2022-09-17T10:39:57.208Z,71.06
2022-09-17T10:40:57.282Z,70.96
2022-09-17T10:41:57.162Z,70.45
2022-09-17T10:42:57.136Z,71.16
2022-09-17T10:43:57.133Z,71.06
2022-09-17T10:44:57.154Z,70.65
2022-09-17T10:45:57.183Z,70.96
2022-09-17T10:46:57.151Z,70.69
2022-09-17T10:47:57.080Z,70.79
2022-09-17T10:48:57.066Z,71.00
2022-09-17T10:49:57.049Z,70.45
2022-09-17T10:50:57.076Z,70.69
2022-09-17T10:51:57.055Z,71.09
2022-09-17T10:52:57.066Z,71.30
2022-09-17T10:53:57.006Z,71.40
2022-09-17T10:54:57.054Z,72.01
2022-09-17T10:55:56.979Z,72.92
2022-09-17T10:56:57.009Z,73.53
2022-09-17T10:57:56.962Z,74.13
2022-09-17T10:58:56.961Z,74.13
2022-09-17T10:59:56.940Z,73.90
2022-09-17T11:00:56.951Z,73.80
2022-09-17T11:01:57.105Z,73.59
2022-09-17T11:02:57.205Z,73.69
2022-09-17T11:03:56.890Z,74.30
2022-09-17T11:04:56.884Z,73.63
2022-09-17T11:05:56.872Z,73.43
2022-09-17T11:06:56.872Z,73.73
2022-09-17T11:07:56.881Z,73.02
2022-09-17T11:08:56.857Z,72.81
2022-09-17T11:09:56.832Z,72.96
2022-09-17T11:10:56.822Z,72.75
2022-09-17T11:11:56.818Z,72.96
2022-09-17T11:12:56.794Z,73.36
2022-09-17T11:13:56.819Z,73.25
2022-09-17T11:14:56.793Z,73.56
2022-09-17T11:15:56.837Z,73.25
2022-09-17T11:16:56.836Z,73.16
2022-09-17T11:17:56.799Z,73.05
2022-09-17T11:18:56.952Z,72.85
2022-09-17T11:19:57.833Z,73.32
2022-09-17T11:20:56.762Z,73.12
2022-09-17T11:21:56.767Z,72.14
2022-09-17T11:22:56.694Z,71.20
2022-09-17T11:23:56.682Z,69.98
2022-09-17T11:24:56.664Z,68.91
2022-09-17T11:26:00.428Z,67.49
2022-09-17T11:26:56.688Z,66.75
2022-09-17T11:27:56.709Z,66.05
2022-09-17T11:28:56.713Z,66.32
2022-09-17T11:29:57.294Z,65.51
2022-09-17T11:30:56.853Z,65.61
2022-09-17T11:31:56.721Z,65.75
2022-09-17T11:32:56.591Z,66.05
2022-09-17T11:33:56.628Z,66.48
2022-09-17T11:34:56.563Z,66.89
2022-09-17T11:35:56.601Z,67.93
2022-09-17T11:36:56.639Z,69.24
2022-09-17T11:37:59.768Z,69.98
2022-09-17T11:38:56.547Z,69.89
2022-09-17T11:39:56.589Z,70.49
2022-09-17T11:40:56.527Z,70.83
2022-09-17T11:41:56.556Z,70.93
2022-09-17T11:42:56.523Z,70.89
2022-09-17T11:43:56.569Z,71.26
2022-09-17T11:44:56.492Z,69.95
2022-09-17T11:45:56.468Z,69.71
2022-09-17T11:46:56.513Z,68.17
2022-09-17T11:47:56.447Z,67.02
2022-09-17T11:48:56.446Z,66.69
2022-09-17T11:49:56.443Z,65.99
2022-09-17T11:50:56.428Z,66.36
2022-09-17T11:51:56.469Z,65.75
2022-09-17T11:52:56.420Z,65.05
2022-09-17T11:53:56.388Z,63.84
2022-09-17T11:54:56.376Z,61.49
2022-09-17T11:55:56.395Z,61.61
2022-09-17T11:56:56.376Z,61.41
2022-09-17T11:57:56.369Z,61.72
2022-09-17T11:58:56.326Z,61.85
2022-09-17T11:59:56.319Z,61.65
2022-09-17T12:00:56.325Z,62.45
2022-09-17T12:01:56.318Z,62.45
2022-09-17T12:02:56.369Z,62.38
2022-09-17T12:03:56.334Z,62.38
2022-09-17T12:04:56.255Z,62.79
2022-09-17T12:05:56.307Z,62.68
2022-09-17T12:06:56.257Z,62.82
2022-09-17T12:07:56.235Z,63.32
2022-09-17T12:08:56.217Z,63.73
2022-09-17T12:09:56.184Z,63.73
2022-09-17T12:10:56.171Z,63.73
2022-09-17T12:11:56.190Z,64.03
2022-09-17T12:12:56.148Z,63.70
2022-09-17T12:13:56.219Z,63.09
2022-09-17T12:14:56.162Z,63.49
2022-09-17T12:15:56.211Z,63.79
2022-09-17T12:16:56.160Z,64.30
2022-09-17T12:18:20.256Z,64.61
2022-09-17T12:18:56.109Z,65.71
2022-09-17T12:19:56.099Z,64.53
2022-09-17T12:20:56.154Z,65.64
2022-09-17T12:21:56.076Z,66.48
2022-09-17T12:22:56.054Z,67.49
2022-09-17T12:23:56.024Z,68.94
2022-09-17T12:24:56.024Z,69.85
2022-09-17T12:25:56.026Z,70.79
2022-09-17T12:26:56.036Z,69.38
2022-09-17T12:27:56.027Z,69.81
2022-09-17T12:28:56.115Z,69.92
2022-09-17T12:30:00.104Z,69.71
2022-09-17T12:30:56.014Z,69.98
2022-09-17T12:31:55.931Z,69.55
2022-09-17T12:32:55.955Z,68.91
2022-09-17T12:33:55.904Z,68.98
2022-09-17T12:34:55.943Z,68.64
2022-09-17T12:36:04.992Z,68.51
2022-09-17T12:36:55.931Z,67.67
2022-09-17T12:37:55.935Z,67.03
2022-09-17T12:38:58.403Z,66.22
2022-09-17T12:39:55.969Z,65.89
2022-09-17T12:40:55.863Z,65.59
2022-09-17T12:41:55.862Z,65.19
2022-09-17T12:42:55.848Z,65.56
2022-09-17T12:43:55.839Z,65.56
2022-09-17T12:44:55.820Z,65.73
2022-09-17T12:45:55.786Z,65.12
2022-09-17T12:46:55.826Z,64.89
2022-09-17T12:47:55.775Z,64.69
2022-09-17T12:48:55.772Z,64.49
2022-09-17T12:49:55.768Z,63.99
2022-09-17T12:50:55.757Z,63.39
2022-09-17T12:51:55.750Z,62.81